GLD1793 SBNF-SBGL
Flight info
| Callsign | GLD1793 |
|---|---|
| Flight time | 1h 4m |
| Altitude | 39000 |
| Route | OGPE1B KUBLO UM540 ANISE DCT DORLU UZ42 VUREP PABE1B |
| Aircraft | B738/M-SDFGIRY/S |
Departure
| Time | 2026-04-25 12:44 |
|---|---|
| Airport | Ministro Victor Konder International Airport (SBNF) |
Arrival
| Time | 2026-04-25 13:48 |
|---|---|
| Airport | Rio Galeão – Tom Jobim International Airport (SBGL) |
| Time | Latitude | Longitude | Altitude | Speed | Heading |
|---|---|---|---|---|---|
| 2026-04-25 12:29 | -26.88006 | -48.64953 | 20 ft | 0 kts | 151° |
| 2026-04-25 12:36 | -26.88004 | -48.64955 | 20 ft | 2 kts | 152° |
| 2026-04-25 12:36 | -26.87988 | -48.64958 | 21 ft | 2 kts | 191° |
| 2026-04-25 12:37 | -26.87973 | -48.64951 | 21 ft | 2 kts | 222° |
| 2026-04-25 12:37 | -26.87962 | -48.64937 | 22 ft | 2 kts | 235° |
| 2026-04-25 12:37 | -26.87955 | -48.64925 | 22 ft | 1 kts | 239° |
| 2026-04-25 12:37 | -26.87954 | -48.64923 | 22 ft | 0 kts | 239° |
| 2026-04-25 12:39 | -26.87955 | -48.64925 | 20 ft | 2 kts | 239° |
| 2026-04-25 12:39 | -26.87958 | -48.64954 | 20 ft | 6 kts | 285° |
| 2026-04-25 12:40 | -26.87929 | -48.64993 | 21 ft | 7 kts | 329° |
| 2026-04-25 12:40 | -26.87883 | -48.64989 | 21 ft | 7 kts | 33° |
| 2026-04-25 12:40 | -26.87847 | -48.64945 | 21 ft | 9 kts | 53° |
| 2026-04-25 12:40 | -26.87808 | -48.64886 | 21 ft | 10 kts | 54° |
| 2026-04-25 12:41 | -26.87771 | -48.64825 | 22 ft | 9 kts | 56° |
| 2026-04-25 12:41 | -26.87735 | -48.64766 | 23 ft | 9 kts | 56° |
| 2026-04-25 12:41 | -26.87700 | -48.64706 | 23 ft | 10 kts | 57° |
| 2026-04-25 12:41 | -26.87652 | -48.64628 | 23 ft | 14 kts | 55° |
| 2026-04-25 12:42 | -26.87588 | -48.64522 | 22 ft | 18 kts | 56° |
| 2026-04-25 12:42 | -26.87540 | -48.64454 | 23 ft | 14 kts | 33° |
| 2026-04-25 12:42 | -26.87473 | -48.64375 | 21 ft | 7 kts | 73° |
| 2026-04-25 12:42 | -26.87497 | -48.64354 | 21 ft | 5 kts | 193° |
| 2026-04-25 12:43 | -26.87508 | -48.64387 | 22 ft | 5 kts | 259° |
| 2026-04-25 12:43 | -26.87521 | -48.64412 | 22 ft | 18 kts | 237° |
| 2026-04-25 12:43 | -26.88408 | -48.65873 | 224 ft | 183 kts | 236° |
| 2026-04-25 12:44 | -26.89119 | -48.67021 | 1430 ft | 184 kts | 236° |
| 2026-04-25 12:44 | -26.89841 | -48.68165 | 2852 ft | 165 kts | 238° |
| 2026-04-25 12:44 | -26.90952 | -48.69998 | 5042 ft | 143 kts | 240° |
| 2026-04-25 12:45 | -26.91627 | -48.71007 | 5348 ft | 184 kts | 223° |
| 2026-04-25 12:45 | -26.92967 | -48.71433 | 5601 ft | 227 kts | 179° |
| 2026-04-25 12:45 | -26.95621 | -48.68936 | 6486 ft | 275 kts | 128° |
| 2026-04-25 12:46 | -26.96772 | -48.67168 | 7071 ft | 290 kts | 130° |
| 2026-04-25 12:46 | -26.98018 | -48.65330 | 7835 ft | 298 kts | 127° |
| 2026-04-25 12:46 | -26.98838 | -48.63177 | 8590 ft | 307 kts | 101° |
| 2026-04-25 12:46 | -26.98733 | -48.60819 | 8941 ft | 311 kts | 71° |
| 2026-04-25 12:47 | -26.97702 | -48.58703 | 9004 ft | 311 kts | 50° |
| 2026-04-25 12:47 | -26.96352 | -48.56819 | 9004 ft | 309 kts | 48° |
| 2026-04-25 12:47 | -26.95004 | -48.54951 | 8994 ft | 307 kts | 49° |
| 2026-04-25 12:47 | -26.93674 | -48.53080 | 8996 ft | 306 kts | 49° |
| 2026-04-25 12:48 | -26.92380 | -48.51180 | 8998 ft | 306 kts | 51° |
| 2026-04-25 12:48 | -26.91072 | -48.49297 | 9032 ft | 307 kts | 44° |
| 2026-04-25 12:48 | -26.89514 | -48.47628 | 9589 ft | 312 kts | 38° |
| 2026-04-25 12:48 | -26.87874 | -48.46029 | 10488 ft | 315 kts | 38° |
| 2026-04-25 12:49 | -26.86147 | -48.44370 | 10815 ft | 340 kts | 38° |
| 2026-04-25 12:49 | -26.84321 | -48.42602 | 11378 ft | 352 kts | 38° |
| 2026-04-25 12:49 | -26.82460 | -48.40778 | 12149 ft | 357 kts | 38° |
| 2026-04-25 12:49 | -26.80587 | -48.38924 | 12941 ft | 362 kts | 38° |
| 2026-04-25 12:50 | -26.78716 | -48.37060 | 13695 ft | 367 kts | 38° |
| 2026-04-25 12:50 | -26.76803 | -48.35147 | 14384 ft | 372 kts | 38° |
| 2026-04-25 12:50 | -26.74866 | -48.33208 | 15109 ft | 375 kts | 38° |
| 2026-04-25 12:50 | -26.72909 | -48.31245 | 15845 ft | 379 kts | 38° |
| 2026-04-25 12:51 | -26.70938 | -48.29269 | 16540 ft | 383 kts | 38° |
| 2026-04-25 12:51 | -26.68938 | -48.27265 | 17246 ft | 387 kts | 38° |
| 2026-04-25 12:51 | -26.66919 | -48.25243 | 17927 ft | 392 kts | 37° |
| 2026-04-25 12:51 | -26.64877 | -48.23199 | 18556 ft | 396 kts | 37° |
| 2026-04-25 12:52 | -26.62807 | -48.21128 | 19075 ft | 402 kts | 37° |
| 2026-04-25 12:52 | -26.60701 | -48.19024 | 19541 ft | 409 kts | 37° |
| 2026-04-25 12:52 | -26.58562 | -48.16886 | 20076 ft | 414 kts | 37° |
| 2026-04-25 12:52 | -26.56408 | -48.14733 | 20615 ft | 418 kts | 37° |
| 2026-04-25 12:53 | -26.54250 | -48.12578 | 21110 ft | 424 kts | 37° |
| 2026-04-25 12:53 | -26.52011 | -48.10343 | 21605 ft | 429 kts | 36° |
| 2026-04-25 12:53 | -26.49798 | -48.08136 | 22083 ft | 434 kts | 36° |
| 2026-04-25 12:53 | -26.47536 | -48.05880 | 22560 ft | 439 kts | 36° |
| 2026-04-25 12:54 | -26.45246 | -48.03598 | 23021 ft | 443 kts | 36° |
| 2026-04-25 12:54 | -26.42932 | -48.01292 | 23470 ft | 448 kts | 36° |
| 2026-04-25 12:54 | -26.40598 | -47.98966 | 23856 ft | 452 kts | 36° |
| 2026-04-25 12:54 | -26.38245 | -47.96623 | 24287 ft | 453 kts | 36° |
| 2026-04-25 12:55 | -26.35886 | -47.94277 | 24722 ft | 455 kts | 36° |
| 2026-04-25 12:55 | -26.35087 | -47.93482 | 24861 ft | 456 kts | 36° |
| 2026-04-25 12:55 | -26.31000 | -47.89778 | 25529 ft | 455 kts | 30° |
| 2026-04-25 12:55 | -26.28443 | -47.87758 | 25947 ft | 456 kts | 28° |
| 2026-04-25 12:56 | -26.25837 | -47.85745 | 26350 ft | 458 kts | 28° |
| 2026-04-25 12:56 | -26.23209 | -47.83704 | 26736 ft | 461 kts | 28° |
| 2026-04-25 12:56 | -26.20581 | -47.81635 | 27124 ft | 464 kts | 29° |
| 2026-04-25 12:56 | -26.17949 | -47.79540 | 27507 ft | 466 kts | 29° |
| 2026-04-25 12:57 | -26.15306 | -47.77426 | 27886 ft | 469 kts | 29° |
| 2026-04-25 12:57 | -26.12650 | -47.75305 | 28248 ft | 472 kts | 29° |
| 2026-04-25 12:57 | -26.09975 | -47.73173 | 28611 ft | 474 kts | 29° |
| 2026-04-25 12:57 | -26.07278 | -47.71032 | 28974 ft | 476 kts | 29° |
| 2026-04-25 12:58 | -26.05489 | -47.69613 | 29212 ft | 478 kts | 29° |
| 2026-04-25 12:58 | -26.02778 | -47.67465 | 29563 ft | 480 kts | 29° |
| 2026-04-25 12:58 | -26.00051 | -47.65305 | 29894 ft | 483 kts | 29° |
| 2026-04-25 12:58 | -25.97308 | -47.63132 | 30199 ft | 485 kts | 30° |
| 2026-04-25 12:59 | -25.94555 | -47.60952 | 30495 ft | 487 kts | 30° |
| 2026-04-25 12:59 | -25.91791 | -47.58763 | 30795 ft | 488 kts | 30° |
| 2026-04-25 12:59 | -25.89024 | -47.56572 | 31107 ft | 489 kts | 30° |
| 2026-04-25 12:59 | -25.86246 | -47.54373 | 31396 ft | 491 kts | 30° |
| 2026-04-25 13:00 | -25.83455 | -47.52167 | 31674 ft | 493 kts | 30° |
| 2026-04-25 13:00 | -25.81608 | -47.50707 | 31847 ft | 494 kts | 30° |
| 2026-04-25 13:00 | -25.77853 | -47.47742 | 32200 ft | 496 kts | 30° |
| 2026-04-25 13:00 | -25.75036 | -47.45519 | 32543 ft | 496 kts | 29° |
| 2026-04-25 13:01 | -25.72231 | -47.43305 | 32965 ft | 493 kts | 29° |
| 2026-04-25 13:01 | -25.69437 | -47.41100 | 33411 ft | 491 kts | 29° |
| 2026-04-25 13:01 | -25.66661 | -47.38911 | 33815 ft | 489 kts | 30° |
| 2026-04-25 13:01 | -25.63930 | -47.36761 | 34142 ft | 488 kts | 30° |
| 2026-04-25 13:02 | -25.61163 | -47.34584 | 34441 ft | 487 kts | 30° |
| 2026-04-25 13:02 | -25.58399 | -47.32413 | 34692 ft | 488 kts | 30° |
| 2026-04-25 13:02 | -25.55629 | -47.30237 | 34936 ft | 489 kts | 30° |
| 2026-04-25 13:02 | -25.52842 | -47.28049 | 35212 ft | 489 kts | 30° |
| 2026-04-25 13:03 | -25.50070 | -47.25873 | 35496 ft | 488 kts | 30° |
| 2026-04-25 13:03 | -25.47304 | -47.23703 | 35777 ft | 488 kts | 30° |
| 2026-04-25 13:03 | -25.44532 | -47.21529 | 36016 ft | 489 kts | 30° |
| 2026-04-25 13:03 | -25.41750 | -47.19349 | 36264 ft | 489 kts | 30° |
| 2026-04-25 13:04 | -25.38981 | -47.17180 | 36528 ft | 488 kts | 30° |
| 2026-04-25 13:04 | -25.36228 | -47.15025 | 36775 ft | 488 kts | 30° |
| 2026-04-25 13:04 | -25.33420 | -47.12828 | 37071 ft | 488 kts | 30° |
| 2026-04-25 13:04 | -25.30697 | -47.10699 | 37332 ft | 487 kts | 30° |
| 2026-04-25 13:05 | -25.27927 | -47.08534 | 37556 ft | 487 kts | 30° |
| 2026-04-25 13:05 | -25.25155 | -47.06369 | 37770 ft | 488 kts | 30° |
| 2026-04-25 13:05 | -25.22383 | -47.04205 | 38007 ft | 488 kts | 30° |
| 2026-04-25 13:05 | -25.19616 | -47.02045 | 38275 ft | 487 kts | 30° |
| 2026-04-25 13:06 | -25.16851 | -46.99889 | 38542 ft | 486 kts | 30° |
| 2026-04-25 13:06 | -25.14084 | -46.97746 | 38740 ft | 485 kts | 28° |
| 2026-04-25 13:06 | -25.11235 | -46.95759 | 38905 ft | 483 kts | 26° |
| 2026-04-25 13:06 | -25.08346 | -46.93860 | 39002 ft | 484 kts | 25° |
| 2026-04-25 13:07 | -25.02504 | -46.90108 | 38992 ft | 486 kts | 25° |
| 2026-04-25 13:07 | -24.96708 | -46.86352 | 38984 ft | 480 kts | 26° |
| 2026-04-25 13:08 | -24.90976 | -46.82602 | 38998 ft | 477 kts | 26° |
| 2026-04-25 13:08 | -24.85278 | -46.78870 | 39000 ft | 475 kts | 26° |
| 2026-04-25 13:09 | -24.79628 | -46.75175 | 39001 ft | 475 kts | 26° |
| 2026-04-25 13:09 | -24.73947 | -46.71465 | 38989 ft | 475 kts | 26° |
| 2026-04-25 13:10 | -24.68260 | -46.67754 | 39009 ft | 475 kts | 26° |
| 2026-04-25 13:10 | -24.62555 | -46.64036 | 39009 ft | 477 kts | 26° |
| 2026-04-25 13:11 | -24.57235 | -46.59608 | 39007 ft | 485 kts | 40° |
| 2026-04-25 13:11 | -24.52416 | -46.54439 | 38995 ft | 488 kts | 41° |
| 2026-04-25 13:12 | -24.47576 | -46.49212 | 39005 ft | 489 kts | 41° |
| 2026-04-25 13:12 | -24.43511 | -46.44885 | 39008 ft | 489 kts | 40° |
| 2026-04-25 13:13 | -24.37763 | -46.38824 | 39011 ft | 490 kts | 40° |
| 2026-04-25 13:13 | -24.32873 | -46.33685 | 39004 ft | 489 kts | 41° |
| 2026-04-25 13:14 | -24.27963 | -46.28529 | 38999 ft | 488 kts | 41° |
| 2026-04-25 13:14 | -24.23072 | -46.23395 | 38999 ft | 486 kts | 40° |
| 2026-04-25 13:15 | -24.18190 | -46.18277 | 38996 ft | 485 kts | 40° |
| 2026-04-25 13:15 | -24.13315 | -46.13171 | 38996 ft | 483 kts | 41° |
| 2026-04-25 13:16 | -24.08461 | -46.08093 | 39003 ft | 482 kts | 40° |
| 2026-04-25 13:16 | -24.03654 | -46.03070 | 38994 ft | 480 kts | 41° |
| 2026-04-25 13:17 | -23.98822 | -45.98027 | 39004 ft | 479 kts | 41° |
| 2026-04-25 13:17 | -23.93997 | -45.92996 | 39014 ft | 478 kts | 41° |
| 2026-04-25 13:18 | -23.89171 | -45.87969 | 39020 ft | 478 kts | 41° |
| 2026-04-25 13:18 | -23.84380 | -45.82984 | 39023 ft | 478 kts | 41° |
| 2026-04-25 13:19 | -23.79558 | -45.77974 | 39034 ft | 478 kts | 41° |
| 2026-04-25 13:19 | -23.77138 | -45.75461 | 38789 ft | 484 kts | 41° |
| 2026-04-25 13:19 | -23.75515 | -45.73778 | 38433 ft | 486 kts | 41° |
| 2026-04-25 13:20 | -23.72238 | -45.70378 | 37699 ft | 483 kts | 41° |
| 2026-04-25 13:20 | -23.69808 | -45.67856 | 37137 ft | 483 kts | 41° |
| 2026-04-25 13:20 | -23.67371 | -45.65329 | 36683 ft | 479 kts | 41° |
| 2026-04-25 13:20 | -23.65002 | -45.62874 | 36320 ft | 474 kts | 41° |
| 2026-04-25 13:21 | -23.62615 | -45.60403 | 35924 ft | 471 kts | 40° |
| 2026-04-25 13:21 | -23.60247 | -45.57952 | 35511 ft | 468 kts | 40° |
| 2026-04-25 13:21 | -23.57898 | -45.55523 | 35110 ft | 465 kts | 40° |
| 2026-04-25 13:21 | -23.55552 | -45.53099 | 34704 ft | 462 kts | 40° |
| 2026-04-25 13:22 | -23.53218 | -45.50688 | 34303 ft | 460 kts | 40° |
| 2026-04-25 13:22 | -23.50898 | -45.48292 | 33872 ft | 458 kts | 40° |
| 2026-04-25 13:22 | -23.48591 | -45.45912 | 33437 ft | 455 kts | 40° |
| 2026-04-25 13:23 | -23.44020 | -45.41197 | 32608 ft | 450 kts | 40° |
| 2026-04-25 13:23 | -23.41756 | -45.38864 | 32208 ft | 447 kts | 40° |
| 2026-04-25 13:23 | -23.39502 | -45.36543 | 31823 ft | 444 kts | 40° |
| 2026-04-25 13:23 | -23.37284 | -45.34196 | 31420 ft | 444 kts | 45° |
| 2026-04-25 13:24 | -23.35435 | -45.31498 | 31018 ft | 446 kts | 57° |
| 2026-04-25 13:24 | -23.34057 | -45.28475 | 30661 ft | 446 kts | 68° |
| 2026-04-25 13:24 | -23.33186 | -45.25250 | 30279 ft | 444 kts | 76° |
| 2026-04-25 13:24 | -23.32504 | -45.22009 | 29825 ft | 444 kts | 77° |
| 2026-04-25 13:25 | -23.31843 | -45.18742 | 29400 ft | 441 kts | 77° |
| 2026-04-25 13:25 | -23.31183 | -45.15497 | 28980 ft | 438 kts | 77° |
| 2026-04-25 13:25 | -23.30514 | -45.12273 | 28568 ft | 435 kts | 77° |
| 2026-04-25 13:25 | -23.29838 | -45.09077 | 28156 ft | 432 kts | 77° |
| 2026-04-25 13:26 | -23.29159 | -45.05907 | 27754 ft | 429 kts | 77° |
| 2026-04-25 13:26 | -23.28480 | -45.02765 | 27343 ft | 426 kts | 77° |
| 2026-04-25 13:26 | -23.27803 | -44.99641 | 26976 ft | 424 kts | 77° |
| 2026-04-25 13:26 | -23.27126 | -44.96527 | 26568 ft | 424 kts | 77° |
| 2026-04-25 13:27 | -23.26448 | -44.93409 | 26171 ft | 421 kts | 77° |
| 2026-04-25 13:27 | -23.25776 | -44.90319 | 25789 ft | 419 kts | 77° |
| 2026-04-25 13:27 | -23.25105 | -44.87236 | 25375 ft | 417 kts | 77° |
| 2026-04-25 13:27 | -23.24438 | -44.84176 | 24971 ft | 416 kts | 77° |
| 2026-04-25 13:28 | -23.23771 | -44.81117 | 24581 ft | 415 kts | 77° |
| 2026-04-25 13:28 | -23.23554 | -44.80123 | 24446 ft | 415 kts | 77° |
| 2026-04-25 13:28 | -23.22451 | -44.75070 | 23791 ft | 412 kts | 77° |
| 2026-04-25 13:28 | -23.21791 | -44.72052 | 23347 ft | 410 kts | 77° |
| 2026-04-25 13:29 | -23.21131 | -44.69031 | 22910 ft | 407 kts | 77° |
| 2026-04-25 13:29 | -23.20476 | -44.66042 | 22509 ft | 404 kts | 77° |
| 2026-04-25 13:29 | -23.19827 | -44.63082 | 22119 ft | 401 kts | 77° |
| 2026-04-25 13:30 | -23.18801 | -44.58239 | 21639 ft | 391 kts | 77° |
| 2026-04-25 13:30 | -23.17924 | -44.54429 | 21152 ft | 387 kts | 69° |
| 2026-04-25 13:30 | -23.16857 | -44.51744 | 20795 ft | 384 kts | 63° |
| 2026-04-25 13:31 | -23.14487 | -44.46587 | 20041 ft | 379 kts | 62° |
| 2026-04-25 13:31 | -23.13319 | -44.44067 | 19654 ft | 378 kts | 62° |
| 2026-04-25 13:31 | -23.12141 | -44.41485 | 19282 ft | 376 kts | 63° |
| 2026-04-25 13:31 | -23.10993 | -44.38937 | 18911 ft | 375 kts | 63° |
| 2026-04-25 13:32 | -23.09869 | -44.36419 | 18531 ft | 374 kts | 63° |
| 2026-04-25 13:32 | -23.08742 | -44.33883 | 18135 ft | 372 kts | 63° |
| 2026-04-25 13:32 | -23.07622 | -44.31355 | 17738 ft | 370 kts | 63° |
| 2026-04-25 13:32 | -23.06512 | -44.28849 | 17359 ft | 367 kts | 63° |
| 2026-04-25 13:33 | -23.05410 | -44.26360 | 17005 ft | 364 kts | 63° |
| 2026-04-25 13:33 | -23.04319 | -44.23898 | 16646 ft | 361 kts | 63° |
| 2026-04-25 13:33 | -23.03234 | -44.21451 | 16281 ft | 358 kts | 64° |
| 2026-04-25 13:33 | -23.02869 | -44.20629 | 16163 ft | 357 kts | 63° |
| 2026-04-25 13:34 | -23.01084 | -44.16605 | 15574 ft | 353 kts | 64° |
| 2026-04-25 13:34 | -23.00024 | -44.14217 | 15241 ft | 351 kts | 64° |
| 2026-04-25 13:34 | -22.98965 | -44.11833 | 14885 ft | 348 kts | 64° |
| 2026-04-25 13:34 | -22.97916 | -44.09473 | 14544 ft | 346 kts | 64° |
| 2026-04-25 13:35 | -22.96874 | -44.07130 | 14209 ft | 344 kts | 64° |
| 2026-04-25 13:35 | -22.95838 | -44.04801 | 13845 ft | 342 kts | 64° |
| 2026-04-25 13:35 | -22.94807 | -44.02482 | 13479 ft | 339 kts | 64° |
| 2026-04-25 13:35 | -22.93785 | -44.00189 | 13106 ft | 337 kts | 64° |
| 2026-04-25 13:36 | -22.92767 | -43.97905 | 12755 ft | 334 kts | 64° |
| 2026-04-25 13:36 | -22.91763 | -43.95652 | 12463 ft | 329 kts | 64° |
| 2026-04-25 13:36 | -22.90771 | -43.93426 | 12125 ft | 327 kts | 64° |
| 2026-04-25 13:36 | -22.89784 | -43.91213 | 11782 ft | 325 kts | 64° |
| 2026-04-25 13:37 | -22.88815 | -43.89039 | 11446 ft | 324 kts | 64° |
| 2026-04-25 13:37 | -22.87837 | -43.86848 | 11106 ft | 323 kts | 64° |
| 2026-04-25 13:37 | -22.86862 | -43.84663 | 10757 ft | 321 kts | 64° |
| 2026-04-25 13:37 | -22.85891 | -43.82488 | 10429 ft | 319 kts | 64° |
| 2026-04-25 13:38 | -22.84927 | -43.80327 | 10188 ft | 314 kts | 64° |
| 2026-04-25 13:38 | -22.83986 | -43.78222 | 9997 ft | 308 kts | 64° |
| 2026-04-25 13:38 | -22.83070 | -43.76173 | 9922 ft | 297 kts | 64° |
| 2026-04-25 13:38 | -22.82153 | -43.74125 | 9422 ft | 303 kts | 64° |
| 2026-04-25 13:39 | -22.81235 | -43.72067 | 9048 ft | 303 kts | 65° |
| 2026-04-25 13:39 | -22.80545 | -43.69915 | 8682 ft | 303 kts | 76° |
| 2026-04-25 13:39 | -22.80071 | -43.67693 | 8330 ft | 302 kts | 78° |
| 2026-04-25 13:39 | -22.79600 | -43.65471 | 7977 ft | 302 kts | 77° |
| 2026-04-25 13:40 | -22.79107 | -43.63258 | 7631 ft | 302 kts | 76° |
| 2026-04-25 13:40 | -22.78602 | -43.61036 | 7241 ft | 304 kts | 76° |
| 2026-04-25 13:40 | -22.78086 | -43.58815 | 6872 ft | 304 kts | 76° |
| 2026-04-25 13:40 | -22.77568 | -43.56598 | 6528 ft | 303 kts | 75° |
| 2026-04-25 13:41 | -22.76897 | -43.54439 | 6076 ft | 304 kts | 59° |
| 2026-04-25 13:41 | -22.75550 | -43.52737 | 5665 ft | 301 kts | 36° |
| 2026-04-25 13:41 | -22.73811 | -43.51490 | 5281 ft | 299 kts | 29° |
| 2026-04-25 13:41 | -22.72027 | -43.50329 | 4906 ft | 299 kts | 28° |
| 2026-04-25 13:42 | -22.70277 | -43.49199 | 4828 ft | 284 kts | 28° |
| 2026-04-25 13:42 | -22.68633 | -43.48133 | 4702 ft | 268 kts | 28° |
| 2026-04-25 13:42 | -22.67085 | -43.47123 | 4606 ft | 253 kts | 28° |
| 2026-04-25 13:42 | -22.65600 | -43.46144 | 4246 ft | 252 kts | 29° |
| 2026-04-25 13:43 | -22.64376 | -43.44810 | 4016 ft | 250 kts | 59° |
| 2026-04-25 13:43 | -22.63957 | -43.43018 | 3887 ft | 247 kts | 91° |
| 2026-04-25 13:43 | -22.64438 | -43.41249 | 3787 ft | 248 kts | 124° |
| 2026-04-25 13:43 | -22.65680 | -43.39972 | 3713 ft | 249 kts | 150° |
| 2026-04-25 13:44 | -22.67176 | -43.39090 | 3631 ft | 238 kts | 159° |
| 2026-04-25 13:44 | -22.68747 | -43.38754 | 3332 ft | 225 kts | 185° |
| 2026-04-25 13:44 | -22.70243 | -43.38827 | 3150 ft | 214 kts | 188° |
| 2026-04-25 13:44 | -22.71703 | -43.38919 | 2953 ft | 206 kts | 185° |
| 2026-04-25 13:45 | -22.73063 | -43.38523 | 2776 ft | 206 kts | 142° |
| 2026-04-25 13:45 | -22.73966 | -43.37346 | 2554 ft | 203 kts | 124° |
| 2026-04-25 13:45 | -22.74780 | -43.36116 | 2256 ft | 196 kts | 125° |
| 2026-04-25 13:45 | -22.75304 | -43.35329 | 2114 ft | 186 kts | 126° |
| 2026-04-25 13:46 | -22.76034 | -43.34229 | 1842 ft | 179 kts | 124° |
| 2026-04-25 13:46 | -22.76972 | -43.32811 | 1548 ft | 170 kts | 125° |
| 2026-04-25 13:46 | -22.77424 | -43.32131 | 1389 ft | 165 kts | 125° |
| 2026-04-25 13:46 | -22.78075 | -43.31151 | 1219 ft | 156 kts | 125° |
| 2026-04-25 13:47 | -22.78696 | -43.30213 | 993 ft | 150 kts | 125° |
| 2026-04-25 13:47 | -22.79314 | -43.29280 | 794 ft | 154 kts | 125° |
| 2026-04-25 13:47 | -22.79919 | -43.28368 | 586 ft | 145 kts | 124° |
| 2026-04-25 13:47 | -22.80496 | -43.27500 | 369 ft | 141 kts | 125° |
| 2026-04-25 13:48 | -22.81059 | -43.26629 | 126 ft | 141 kts | 125° |
| 2026-04-25 13:48 | -22.81624 | -43.25780 | 26 ft | 129 kts | 126° |
| 2026-04-25 13:48 | -22.82056 | -43.25136 | 25 ft | 85 kts | 126° |
| 2026-04-25 13:48 | -22.82306 | -43.24761 | 18 ft | 29 kts | 125° |
| 2026-04-25 13:49 | -22.82353 | -43.24620 | 19 ft | 16 kts | 99° |
| 2026-04-25 13:49 | -22.82363 | -43.24525 | 18 ft | 11 kts | 95° |
| 2026-04-25 13:49 | -22.82364 | -43.24507 | 18 ft | 0 kts | 94° |
| 2026-04-25 13:49 | -22.82364 | -43.24499 | 18 ft | 3 kts | 94° |
| 2026-04-25 13:50 | -22.82362 | -43.24466 | 18 ft | 6 kts | 73° |
| 2026-04-25 13:50 | -22.82339 | -43.24430 | 18 ft | 6 kts | 49° |
| 2026-04-25 13:50 | -22.82307 | -43.24398 | 17 ft | 6 kts | 37° |
| 2026-04-25 13:50 | -22.82270 | -43.24371 | 18 ft | 6 kts | 33° |
| 2026-04-25 13:51 | -22.82234 | -43.24346 | 20 ft | 6 kts | 33° |
| 2026-04-25 13:51 | -22.82198 | -43.24319 | 20 ft | 6 kts | 35° |
| 2026-04-25 13:51 | -22.82158 | -43.24299 | 20 ft | 6 kts | 6° |
| 2026-04-25 13:51 | -22.82119 | -43.24319 | 20 ft | 6 kts | 312° |
| 2026-04-25 13:52 | -22.82092 | -43.24356 | 20 ft | 6 kts | 307° |
| 2026-04-25 13:52 | -22.82066 | -43.24394 | 20 ft | 6 kts | 306° |
| 2026-04-25 13:52 | -22.82041 | -43.24432 | 21 ft | 6 kts | 305° |
| 2026-04-25 13:52 | -22.82021 | -43.24453 | 20 ft | 3 kts | 336° |
| 2026-04-25 13:53 | -22.81999 | -43.24449 | 20 ft | 3 kts | 25° |
| 2026-04-25 13:53 | -22.81980 | -43.24436 | 20 ft | 3 kts | 31° |
| 2026-04-25 13:53 | -22.81960 | -43.24423 | 22 ft | 3 kts | 31° |
| 2026-04-25 13:53 | -22.81947 | -43.24414 | 20 ft | 0 kts | 36° |
| 2026-04-25 13:54 | -22.81946 | -43.24413 | 20 ft | 0 kts | 36° |
| 2026-04-25 14:00 | -23.42967 | -46.48281 | 20 ft | 0 kts | 353° |